Time;durP1;ratioP1;P1;durP2;ratioP2;P2;SDS_P1;SDS_P2;PMS_P1;PMS_P2;Temp;Humidity;BMP_temperature;BMP_pressure;BME280_temperature;BME280_humidity;BME280_pressure;Samples;Min_cycle;Max_cycle;Signal;HPM_P1;HPM_P2
2023/03/25 00:01:12;;;;;;;5.60;2.13;;;8.70;43.80;;;;;;5071548;28;20977;-51
2023/03/25 00:03:41;;;;;;;3.57;1.60;;;8.70;40.40;;;;;;5070761;28;20496;-51
2023/03/25 00:06:11;;;;;;;2.37;1.80;;;8.60;37.10;;;;;;5067351;28;21408;-51
2023/03/25 00:08:38;;;;;;;2.40;2.03;;;8.60;33.80;;;;;;5056360;28;20465;-52
2023/03/25 00:11:05;;;;;;;1.70;1.60;;;8.60;33.90;;;;;;5063957;28;20449;-51
2023/03/25 00:13:33;;;;;;;2.60;1.70;;;8.60;28.70;;;;;;5070894;28;20975;-51
2023/03/25 00:16:00;;;;;;;4.90;2.17;;;8.50;24.90;;;;;;5071243;28;20438;-51
2023/03/25 00:18:32;;;;;;;1.93;1.70;;;8.50;20.40;;;;;;5071566;28;20438;-51
2023/03/25 00:21:00;;;;;;;1.80;1.60;;;8.50;99.90;;;;;;5071580;28;20477;-51
2023/03/25 00:23:29;;;;;;;4.63;1.80;;;8.50;99.90;;;;;;5073278;28;20577;-51
2023/03/25 00:25:59;;;;;;;2.20;1.60;;;8.50;99.90;;;;;;5075336;28;20441;-57
2023/03/25 00:28:27;;;;;;;1.73;1.60;;;8.50;99.90;;;;;;5075319;28;20514;-51
2023/03/25 00:30:54;;;;;;;2.03;1.90;;;8.40;99.90;;;;;;5075618;28;20829;-51
2023/03/25 00:33:21;;;;;;;1.83;1.70;;;8.40;99.90;;;;;;5075147;28;20852;-51
2023/03/25 00:35:53;;;;;;;2.87;1.63;;;8.40;99.90;;;;;;5074620;28;20833;-51
2023/03/25 00:38:20;;;;;;;3.43;1.90;;;8.40;99.90;;;;;;5075132;28;20974;-55
2023/03/25 00:40:48;;;;;;;5.03;1.50;;;8.30;99.90;;;;;;5073615;28;20539;-51
2023/03/25 00:43:14;;;;;;;4.20;2.20;;;8.20;99.90;;;;;;5066923;28;20500;-51
2023/03/25 00:45:41;;;;;;;4.57;1.93;;;8.30;99.90;;;;;;5073661;28;20445;-50
2023/03/25 00:48:08;;;;;;;3.80;1.73;;;8.20;99.90;;;;;;5075211;28;20442;-51
2023/03/25 00:50:34;;;;;;;1.67;1.57;;;8.10;99.90;;;;;;5075384;28;20449;-50
2023/03/25 00:53:02;;;;;;;1.53;1.43;;;8.00;99.90;;;;;;5074844;28;20967;-50
2023/03/25 00:55:28;;;;;;;1.70;1.50;;;8.00;99.90;;;;;;5073933;28;20490;-51
2023/03/25 00:57:56;;;;;;;2.13;1.70;;;7.90;99.90;;;;;;5074054;28;20502;-51
2023/03/25 01:00:23;;;;;;;3.43;1.73;;;7.90;99.90;;;;;;5066566;28;20476;-51
2023/03/25 01:02:52;;;;;;;1.80;1.60;;;7.90;99.90;;;;;;5074315;28;20469;-51
2023/03/25 01:05:20;;;;;;;2.03;1.87;;;8.00;99.90;;;;;;5073928;28;20503;-51
2023/03/25 01:07:48;;;;;;;2.90;1.67;;;7.90;99.90;;;;;;5074704;28;20441;-51
2023/03/25 01:10:15;;;;;;;3.07;1.80;;;7.90;99.90;;;;;;5074404;28;20489;-53
2023/03/25 01:12:41;;;;;;;1.80;1.50;;;7.90;99.90;;;;;;5074867;28;20540;-51
2023/03/25 01:15:12;;;;;;;3.00;1.60;;;7.90;99.90;;;;;;5071005;28;20441;-51
2023/03/25 01:17:38;;;;;;;1.93;1.53;;;7.80;99.90;;;;;;5062005;28;20469;-51
2023/03/25 01:20:07;;;;;;;2.27;1.60;;;7.80;99.90;;;;;;5068377;28;20461;-51
2023/03/25 01:22:34;;;;;;;2.30;1.47;;;7.70;99.90;;;;;;5065787;28;20489;-52
2023/03/25 01:25:00;;;;;;;1.63;1.33;;;7.70;99.90;;;;;;5071029;28;20482;-51
2023/03/25 01:27:27;;;;;;;2.53;1.50;;;7.70;99.90;;;;;;5068691;28;20446;-51
2023/03/25 01:29:54;;;;;;;3.60;2.00;;;7.60;99.90;;;;;;5074256;28;20462;-51
2023/03/25 01:32:22;;;;;;;2.50;2.10;;;7.70;99.90;;;;;;5074019;28;20846;-51
2023/03/25 01:34:49;;;;;;;2.83;1.63;;;7.70;99.90;;;;;;5071752;28;20516;-51
2023/03/25 01:37:16;;;;;;;2.40;2.20;;;7.60;99.90;;;;;;5073607;28;20949;-50
2023/03/25 01:39:43;;;;;;;2.40;1.80;;;7.60;99.90;;;;;;5070622;28;20461;-50
2023/03/25 01:42:11;;;;;;;3.00;1.30;;;7.60;99.90;;;;;;5065768;28;21079;-51
2023/03/25 01:45:14;;;;;;;4.63;1.47;;;7.60;99.90;;;;;;5059472;28;20509;-51
2023/03/25 01:47:43;;;;;;;1.77;1.63;;;7.60;99.90;;;;;;5073971;28;20829;-51
2023/03/25 01:50:13;;;;;;;1.70;1.60;;;7.60;99.90;;;;;;5072901;28;20485;-51
2023/03/25 01:52:43;;;;;;;1.63;1.30;;;7.60;99.90;;;;;;5065598;28;20546;-51
2023/03/25 01:55:10;;;;;;;1.30;1.20;;;7.60;99.90;;;;;;5066933;28;20462;-51
2023/03/25 01:57:40;;;;;;;1.50;1.40;;;7.60;99.90;;;;;;5069583;28;20449;-51
2023/03/25 02:00:08;;;;;;;2.43;1.63;;;7.60;99.90;;;;;;5073447;28;20989;-51
2023/03/25 02:02:39;;;;;;;1.83;1.40;;;7.60;99.90;;;;;;5056046;28;20476;-51
2023/03/25 02:05:10;;;;;;;4.60;1.67;;;7.60;99.90;;;;;;5072921;28;20490;-50
2023/03/25 02:07:41;;;;;;;5.00;1.23;;;7.70;99.90;;;;;;5071458;28;20461;-51
2023/03/25 02:10:10;;;;;;;1.47;1.37;;;7.70;99.90;;;;;;5061570;28;20530;-50
2023/03/25 02:12:37;;;;;;;4.93;1.70;;;7.80;99.90;;;;;;5053434;28;20980;-50
2023/03/25 02:15:08;;;;;;;2.93;1.57;;;7.90;99.90;;;;;;5052844;28;20496;-50
2023/03/25 02:17:46;;;;;;;1.63;1.53;;;7.90;99.90;;;;;;5072788;28;20507;-51
2023/03/25 02:20:34;;;;;;;5.53;1.80;;;7.90;99.90;;;;;;5067420;28;20464;-51
2023/03/25 02:23:29;;;;;;;2.97;1.53;;;7.90;99.90;;;;;;5067398;28;20485;-51
2023/03/25 02:26:28;;;;;;;4.30;1.50;;;7.90;99.90;;;;;;5059239;28;20462;-51
2023/03/25 02:29:04;;;;;;;1.17;1.17;;;8.00;99.90;;;;;;5056481;28;20481;-51
2023/03/25 02:31:48;;;;;;;1.60;1.50;;;8.00;99.90;;;;;;5064198;28;20452;-51
2023/03/25 02:34:28;;;;;;;1.40;1.30;;;8.10;99.90;;;;;;5067878;28;20454;-51
2023/03/25 02:37:27;;;;;;;4.70;1.60;;;8.10;99.90;;;;;;5065424;28;20496;-51
2023/03/25 02:40:01;;;;;;;5.80;1.50;;;8.20;99.90;;;;;;5055937;28;20495;-51
2023/03/25 02:42:33;;;;;;;2.57;2.13;;;8.20;99.90;;;;;;5065034;28;20507;-51
2023/03/25 02:45:03;;;;;;;1.80;1.70;;;8.20;99.90;;;;;;5071568;28;20481;-51
2023/03/25 02:47:33;;;;;;;2.23;1.30;;;8.30;99.90;;;;;;5063780;28;20939;-51
2023/03/25 02:50:06;;;;;;;1.40;1.30;;;8.30;99.90;;;;;;5072772;28;20916;-51
2023/03/25 02:52:37;;;;;;;2.37;1.30;;;8.40;99.90;;;;;;5072529;28;20825;-51
2023/03/25 02:55:09;;;;;;;4.23;1.20;;;8.40;99.90;;;;;;5072210;28;20441;-51
2023/03/25 02:57:39;;;;;;;3.70;1.60;;;8.50;99.90;;;;;;5062844;28;20462;-50
2023/03/25 03:00:14;;;;;;;2.30;1.40;;;8.50;99.90;;;;;;5070073;28;20461;-51
2023/03/25 03:02:44;;;;;;;2.57;1.53;;;8.50;99.90;;;;;;5064191;28;20464;-51
2023/03/25 03:05:25;;;;;;;1.10;1.03;;;8.60;99.90;;;;;;5071639;28;20485;-51
2023/03/25 03:08:03;;;;;;;2.60;1.20;;;8.60;99.90;;;;;;5071235;28;20822;-51
2023/03/25 03:10:41;;;;;;;1.83;1.30;;;8.60;99.90;;;;;;5068623;28;20453;-51
2023/03/25 03:13:21;;;;;;;2.90;1.40;;;8.60;99.90;;;;;;5062075;28;21020;-51
2023/03/25 03:15:56;;;;;;;6.80;1.67;;;8.60;99.90;;;;;;5071656;28;20437;-51
2023/03/25 03:18:36;;;;;;;2.07;1.03;;;8.70;99.90;;;;;;5071242;28;20453;-51
2023/03/25 03:21:11;;;;;;;3.97;1.40;;;8.70;99.90;;;;;;5061120;28;20442;-50
2023/03/25 03:23:50;;;;;;;1.93;1.13;;;8.70;99.90;;;;;;5057709;28;20521;-51
2023/03/25 03:26:26;;;;;;;4.13;1.50;;;8.60;99.90;;;;;;5052170;28;20445;-52
2023/03/25 03:29:03;;;;;;;3.40;1.60;;;8.50;99.90;;;;;;5071191;28;20461;-51
2023/03/25 03:31:36;;;;;;;3.07;1.93;;;8.60;99.90;;;;;;5070690;28;20472;-51
2023/03/25 03:34:09;;;;;;;2.50;2.07;;;8.50;99.90;;;;;;5070159;28;20854;-51
2023/03/25 03:36:41;;;;;;;3.93;2.17;;;8.50;99.90;;;;;;5071635;28;20452;-51
2023/03/25 03:39:15;;;;;;;3.63;2.13;;;8.40;99.90;;;;;;5070412;28;20997;-52
2023/03/25 03:41:47;;;;;;;4.50;2.10;;;8.30;93.10;;;;;;5071165;28;20444;-51
2023/03/25 03:44:16;;;;;;;3.63;2.10;;;8.20;75.10;;;;;;5070583;28;20550;-50
2023/03/25 03:46:47;;;;;;;3.93;2.20;;;8.20;53.50;;;;;;5071632;28;20449;-51
2023/03/25 03:49:18;;;;;;;3.77;2.63;;;8.10;49.80;;;;;;5065814;28;20486;-50
2023/03/25 03:51:50;;;;;;;6.90;2.40;;;8.10;41.00;;;;;;5062628;28;20924;-51
2023/03/25 03:54:20;;;;;;;3.57;1.90;;;8.00;33.80;;;;;;5067605;28;20461;-50
2023/03/25 03:56:53;;;;;;;2.10;1.40;;;8.00;32.30;;;;;;5062994;28;20457;-51
2023/03/25 03:59:27;;;;;;;1.77;1.30;;;8.00;29.10;;;;;;5063575;28;20515;-51
2023/03/25 04:01:59;;;;;;;3.00;1.40;;;8.00;27.00;;;;;;5067013;28;20493;-51
2023/03/25 04:04:26;;;;;;;2.23;1.50;;;8.00;24.80;;;;;;5059934;28;20474;-51
2023/03/25 04:06:57;;;;;;;2.93;1.33;;;8.00;25.20;;;;;;5051547;28;20811;-51
2023/03/25 04:09:32;;;;;;;4.23;1.20;;;8.00;24.30;;;;;;5054539;28;20567;-51
2023/03/25 04:12:04;;;;;;;1.67;1.00;;;8.00;23.70;;;;;;5059722;28;20469;-51
2023/03/25 04:14:32;;;;;;;2.50;1.23;;;8.00;23.70;;;;;;5057750;28;20948;-51
2023/03/25 04:16:59;;;;;;;4.27;1.07;;;8.10;23.10;;;;;;5066171;28;20461;-51
2023/03/25 04:19:26;;;;;;;2.70;1.37;;;8.10;23.20;;;;;;5059074;28;20469;-51
2023/03/25 04:21:53;;;;;;;3.00;1.10;;;8.20;23.10;;;;;;5069036;28;20572;-51
2023/03/25 04:24:20;;;;;;;1.37;0.90;;;8.10;23.80;;;;;;5070865;28;20480;-51
2023/03/25 04:26:48;;;;;;;2.10;1.20;;;8.20;22.30;;;;;;5069472;28;20482;-51
2023/03/25 04:29:16;;;;;;;1.20;1.10;;;8.20;22.60;;;;;;5053085;28;20504;-51
2023/03/25 04:31:45;;;;;;;1.20;1.10;;;8.20;23.10;;;;;;5069911;28;20485;-51
2023/03/25 04:34:13;;;;;;;2.40;1.10;;;8.20;23.40;;;;;;5083591;22;20981;-51
2023/03/25 04:36:41;;;;;;;2.37;1.57;;;8.20;25.30;;;;;;5048157;28;21045;-50
2023/03/25 04:39:09;;;;;;;3.53;1.53;;;8.20;27.60;;;;;;5039306;28;20518;-50
2023/03/25 04:41:35;;;;;;;6.53;1.37;;;8.20;28.20;;;;;;5031547;28;20447;-50
2023/03/25 04:44:02;;;;;;;3.13;1.23;;;8.20;29.00;;;;;;5026618;28;20475;-50
2023/03/25 04:46:30;;;;;;;4.30;1.23;;;8.20;28.50;;;;;;5024657;28;20522;-50
2023/03/25 04:48:56;;;;;;;1.07;0.90;;;8.20;29.50;;;;;;5019130;28;20501;-50
2023/03/25 04:51:23;;;;;;;1.43;1.00;;;8.10;30.20;;;;;;5019804;28;20468;-50
2023/03/25 04:53:49;;;;;;;2.10;1.50;;;8.10;30.20;;;;;;5030348;28;20522;-50
2023/03/25 04:56:18;;;;;;;2.23;1.87;;;8.00;29.20;;;;;;5030660;28;20479;-51
2023/03/25 04:58:45;;;;;;;3.23;1.67;;;8.00;29.40;;;;;;5021647;28;20876;-51
2023/03/25 05:01:20;;;;;;;2.63;1.80;;;8.00;29.70;;;;;;5029783;28;20890;-51
2023/03/25 05:03:49;;;;;;;2.73;2.00;;;8.00;28.60;;;;;;5030723;28;20968;-50
2023/03/25 05:06:16;;;;;;;2.57;1.50;;;8.00;29.10;;;;;;5026170;28;20494;-51
2023/03/25 05:08:42;;;;;;;4.40;1.70;;;8.00;29.80;;;;;;5021750;28;20478;-50
2023/03/25 05:11:09;;;;;;;1.87;1.10;;;8.00;31.60;;;;;;5026810;28;20474;-50
2023/03/25 05:13:35;;;;;;;3.03;1.60;;;8.00;33.50;;;;;;5034100;28;20991;-50
2023/03/25 05:16:02;;;;;;;2.50;1.27;;;8.00;34.10;;;;;;5033362;28;20965;-51
2023/03/25 05:18:30;;;;;;;1.33;1.23;;;8.00;35.40;;;;;;5031751;28;20482;-50
2023/03/25 05:20:59;;;;;;;2.73;1.17;;;8.00;37.50;;;;;;5026224;28;20555;-51
2023/03/25 05:23:26;;;;;;;4.03;2.10;;;8.00;39.40;;;;;;5031921;28;20558;-51
2023/03/25 05:25:52;;;;;;;4.13;2.00;;;8.00;41.60;;;;;;5030862;28;21019;-51
2023/03/25 05:28:19;;;;;;;1.63;1.40;;;8.00;43.80;;;;;;5031836;28;20498;-51
2023/03/25 05:30:46;;;;;;;1.53;1.43;;;8.10;44.50;;;;;;5021860;28;20496;-51
2023/03/25 05:33:15;;;;;;;4.23;1.23;;;8.10;45.60;;;;;;5029834;28;20879;-50
2023/03/25 05:35:43;;;;;;;2.53;1.30;;;8.10;50.00;;;;;;5025191;28;20499;-52
2023/03/25 05:38:12;;;;;;;4.73;1.17;;;8.20;51.90;;;;;;5034495;28;20481;-51
2023/03/25 05:40:39;;;;;;;12.17;2.03;;;8.20;53.30;;;;;;5033762;28;20550;-50
2023/03/25 05:43:06;;;;;;;2.57;1.50;;;8.30;52.70;;;;;;5025544;28;20460;-50
2023/03/25 05:45:34;;;;;;;7.20;1.50;;;8.20;55.40;;;;;;5025243;28;20510;-52
2023/03/25 05:48:01;;;;;;;2.30;1.60;;;8.30;54.10;;;;;;5033084;28;20448;-50
2023/03/25 05:50:27;;;;;;;5.80;1.80;;;8.40;58.30;;;;;;5026778;28;20507;-49
2023/03/25 05:52:56;;;;;;;3.80;1.83;;;8.40;60.50;;;;;;5021970;28;20979;-50
2023/03/25 05:55:24;;;;;;;4.23;2.20;;;8.60;70.60;;;;;;5025176;28;20486;-50
2023/03/25 05:57:51;;;;;;;4.43;1.80;;;8.70;80.90;;;;;;5031082;28;20499;-51
2023/03/25 06:00:20;;;;;;;17.97;2.20;;;8.70;88.50;;;;;;5027357;28;21040;-51
2023/03/25 06:02:47;;;;;;;3.30;1.87;;;8.70;87.90;;;;;;5022308;28;20844;-51
2023/03/25 06:05:16;;;;;;;2.43;1.63;;;8.80;99.90;;;;;;5014205;28;20515;-51
2023/03/25 06:07:44;;;;;;;4.73;2.17;;;8.80;99.90;;;;;;5025441;28;20962;-50
2023/03/25 06:10:11;;;;;;;5.00;2.27;;;8.70;99.90;;;;;;5033189;28;20467;-52
2023/03/25 06:12:39;;;;;;;3.27;1.80;;;8.80;99.90;;;;;;5025668;28;20440;-51
2023/03/25 06:15:08;;;;;;;3.03;1.57;;;8.80;99.90;;;;;;5031947;28;20499;-51
2023/03/25 06:17:37;;;;;;;4.33;1.90;;;8.80;99.90;;;;;;5020354;28;20492;-51
2023/03/25 06:20:09;;;;;;;2.77;1.33;;;8.90;99.90;;;;;;5024837;28;20497;-51
2023/03/25 06:22:37;;;;;;;3.23;1.63;;;8.90;99.90;;;;;;5033668;28;20823;-50
2023/03/25 06:25:04;;;;;;;7.80;2.00;;;9.00;99.90;;;;;;5032655;28;20515;-51
2023/03/25 06:27:33;;;;;;;5.53;2.07;;;9.00;99.90;;;;;;5033434;28;20886;-50
2023/03/25 06:30:01;;;;;;;7.40;2.40;;;9.10;99.90;;;;;;5022606;28;20477;-50
2023/03/25 06:32:28;;;;;;;2.30;1.50;;;9.10;99.90;;;;;;5018582;28;20941;-51
2023/03/25 06:34:54;;;;;;;4.17;1.60;;;9.10;99.90;;;;;;5030381;28;20949;-51
2023/03/25 06:37:24;;;;;;;3.63;1.57;;;9.10;99.90;;;;;;5013710;28;20543;-51
2023/03/25 06:39:55;;;;;;;2.67;1.37;;;9.20;99.90;;;;;;5023245;28;20976;-51
2023/03/25 06:42:22;;;;;;;5.30;1.80;;;9.20;99.90;;;;;;5033462;28;20487;-50
2023/03/25 06:44:48;;;;;;;3.13;1.50;;;9.20;99.90;;;;;;5032065;28;20541;-50
2023/03/25 06:47:16;;;;;;;4.50;1.53;;;9.50;99.90;;;;;;5033429;28;20476;-50
2023/03/25 06:49:43;;;;;;;2.97;1.93;;;9.70;99.90;;;;;;5028279;28;20521;-49
2023/03/25 06:52:10;;;;;;;3.40;2.03;;;9.90;99.90;;;;;;5033078;28;20479;-50
2023/03/25 06:54:37;;;;;;;3.27;1.80;;;9.90;99.90;;;;;;5033727;28;20981;-51
2023/03/25 06:57:07;;;;;;;2.30;1.27;;;9.90;36.20;;;;;;5035213;28;20549;-51
2023/03/25 06:59:34;;;;;;;3.07;1.73;;;9.90;44.60;;;;;;5032874;28;20513;-51
2023/03/25 07:02:01;;;;;;;2.43;1.60;;;10.00;38.50;;;;;;5029386;28;20460;-51
2023/03/25 07:04:29;;;;;;;1.73;1.63;;;10.00;43.20;;;;;;5018235;28;20505;-51
2023/03/25 07:06:55;;;;;;;1.70;1.60;;;10.00;50.90;;;;;;5025621;28;20514;-50
2023/03/25 07:09:22;;;;;;;1.23;1.13;;;10.20;45.60;;;;;;5018198;28;20903;-49
2023/03/25 07:11:48;;;;;;;6.00;1.87;;;10.20;70.30;;;;;;5021024;28;20495;-51
2023/03/25 07:14:15;;;;;;;1.20;1.10;;;10.20;73.50;;;;;;5026749;28;20515;-51
2023/03/25 07:16:41;;;;;;;2.30;1.43;;;10.30;77.50;;;;;;5023737;28;20482;-50
2023/03/25 07:19:08;;;;;;;1.50;1.40;;;10.70;73.40;;;;;;5028076;28;20515;-51
2023/03/25 07:21:36;;;;;;;4.07;1.50;;;10.90;99.90;;;;;;5026527;28;20504;-51
2023/03/25 07:24:02;;;;;;;2.93;1.30;;;11.20;99.90;;;;;;5031709;28;20472;-50
2023/03/25 07:26:29;;;;;;;1.80;0.97;;;11.30;40.90;;;;;;5030467;28;20483;-50
2023/03/25 07:28:55;;;;;;;5.90;1.23;;;11.70;58.40;;;;;;5028895;28;20546;-51
2023/03/25 07:31:22;;;;;;;3.47;1.50;;;11.80;74.10;;;;;;5021952;28;20507;-52
2023/03/25 07:33:50;;;;;;;4.87;1.40;;;11.90;79.30;;;;;;5031171;28;20502;-52
2023/03/25 07:36:17;;;;;;;2.13;1.17;;;12.00;82.60;;;;;;5024460;28;20915;-51
2023/03/25 07:38:45;;;;;;;2.23;1.23;;;12.40;84.50;;;;;;5020235;28;20548;-51
2023/03/25 07:41:13;;;;;;;1.27;1.10;;;12.40;99.80;;;;;;5025647;28;20467;-51
2023/03/25 07:43:40;;;;;;;4.30;1.53;;;12.60;95.90;;;;;;5031308;28;20453;-50
2023/03/25 07:46:07;;;;;;;2.33;1.33;;;12.20;99.90;;;;;;5031632;28;20601;-50
2023/03/25 07:48:33;;;;;;;5.90;1.37;;;12.20;98.00;;;;;;5023126;28;20554;-50
2023/03/25 07:51:00;;;;;;;9.10;1.13;;;11.90;99.90;;;;;;5022895;28;20467;-50
2023/03/25 07:53:27;;;;;;;5.70;1.20;;;11.50;89.80;;;;;;5027025;28;20506;-49
2023/03/25 07:55:55;;;;;;;3.27;1.30;;;11.40;86.70;;;;;;5020134;28;20486;-51
2023/03/25 07:58:22;;;;;;;5.23;1.40;;;11.30;82.60;;;;;;5031845;28;20463;-50
2023/03/25 08:00:48;;;;;;;4.97;1.23;;;11.20;80.70;;;;;;5030655;28;20443;-50
2023/03/25 08:03:15;;;;;;;5.07;2.10;;;11.20;82.60;;;;;;5027881;28;20491;-50
2023/03/25 08:05:46;;;;;;;1.53;1.43;;;11.20;84.70;;;;;;5026356;28;20515;-51
2023/03/25 08:08:13;;;;;;;4.80;1.37;;;11.20;82.20;;;;;;5028490;28;20488;-49
2023/03/25 08:10:42;;;;;;;2.00;1.30;;;11.20;83.80;;;;;;5026941;28;20495;-51
2023/03/25 08:13:10;;;;;;;3.93;1.60;;;11.20;85.80;;;;;;5019878;28;20460;-51
2023/03/25 08:15:37;;;;;;;1.33;1.00;;;11.30;82.30;;;;;;5026035;28;20479;-51
2023/03/25 08:18:05;;;;;;;3.00;1.50;;;11.30;85.50;;;;;;5031788;28;20956;-51
2023/03/25 08:20:31;;;;;;;1.40;0.80;;;11.10;88.80;;;;;;5024151;28;20444;-51
2023/03/25 08:22:58;;;;;;;1.30;1.17;;;11.00;92.30;;;;;;5024518;28;20467;-51
2023/03/25 08:25:25;;;;;;;4.53;1.40;;;11.00;94.00;;;;;;5030402;28;20463;-51
2023/03/25 08:27:52;;;;;;;2.73;1.43;;;11.00;90.70;;;;;;5039370;28;20455;-50
2023/03/25 08:30:19;;;;;;;6.47;1.13;;;11.00;96.70;;;;;;5033130;28;20459;-58
2023/03/25 08:32:52;;;;;;;3.93;1.40;;;11.00;99.90;;;;;;5039763;28;20462;-50
2023/03/25 08:35:20;;;;;;;2.00;1.10;;;10.90;99.60;;;;;;5027462;28;20521;-50
2023/03/25 08:37:47;;;;;;;2.83;1.00;;;11.10;99.90;;;;;;5026715;28;20973;-50
2023/03/25 08:40:15;;;;;;;4.20;1.50;;;11.20;99.90;;;;;;5025316;28;20464;-51
2023/03/25 08:42:42;;;;;;;3.53;1.30;;;11.40;99.90;;;;;;5020868;28;20440;-51
2023/03/25 08:45:10;;;;;;;1.80;1.07;;;11.70;99.90;;;;;;5014127;28;20495;-52
2023/03/25 08:47:39;;;;;;;4.00;1.80;;;11.90;99.90;;;;;;5026531;28;20970;-51
2023/03/25 08:50:06;;;;;;;3.90;0.90;;;11.90;99.90;;;;;;5030372;28;20466;-51
2023/03/25 08:52:33;;;;;;;1.70;1.60;;;11.70;99.90;;;;;;5026359;28;20468;-51
2023/03/25 08:55:00;;;;;;;2.10;1.20;;;11.60;99.90;;;;;;5030028;28;20493;-51
2023/03/25 08:57:26;;;;;;;1.27;0.83;;;11.50;99.90;;;;;;5019871;28;20468;-51
2023/03/25 08:59:53;;;;;;;3.00;0.83;;;11.50;99.90;;;;;;5020572;28;20510;-51
2023/03/25 09:02:22;;;;;;;1.00;0.90;;;11.50;99.90;;;;;;5032793;28;21176;-51
2023/03/25 09:04:50;;;;;;;2.50;1.17;;;11.50;99.90;;;;;;5027651;28;20904;-50
2023/03/25 09:07:18;;;;;;;2.00;0.70;;;11.40;99.90;;;;;;5035915;28;20535;-50
2023/03/25 09:09:45;;;;;;;2.60;1.23;;;11.90;99.90;;;;;;5031492;28;20570;-50
2023/03/25 09:12:12;;;;;;;1.63;1.10;;;11.80;99.90;;;;;;5027668;28;20502;-50
2023/03/25 09:14:39;;;;;;;0.90;0.90;;;11.70;99.90;;;;;;5036366;28;20496;-50
2023/03/25 09:17:05;;;;;;;4.20;0.90;;;11.70;99.90;;;;;;5035513;28;20443;-51
2023/03/25 09:19:34;;;;;;;3.10;1.20;;;11.90;99.90;;;;;;5027380;28;20466;-50
2023/03/25 09:22:01;;;;;;;2.20;1.00;;;12.10;99.90;;;;;;5027850;28;20447;-50
2023/03/25 09:24:28;;;;;;;1.27;1.10;;;12.70;99.90;;;;;;5033777;28;20468;-52
2023/03/25 09:26:55;;;;;;;1.73;0.83;;;12.90;99.90;;;;;;5034250;28;21024;-51
2023/03/25 09:29:21;;;;;;;1.83;1.00;;;13.70;99.90;;;;;;5028699;28;20492;-50
2023/03/25 09:31:48;;;;;;;4.17;1.30;;;13.70;99.90;;;;;;5026565;28;20484;-51
2023/03/25 09:34:14;;;;;;;1.00;0.90;;;14.10;99.90;;;;;;5033700;28;20511;-51
2023/03/25 09:36:41;;;;;;;4.50;1.50;;;14.20;99.90;;;;;;5034514;28;20486;-51
2023/03/25 09:39:09;;;;;;;1.43;1.17;;;14.40;99.90;;;;;;5034452;28;20458;-51
2023/03/25 09:41:54;;;;;;;1.10;1.00;;;15.00;99.90;;;;;;5028734;28;20813;-50
2023/03/25 09:44:24;;;;;;;2.23;1.17;;;14.60;99.90;;;;;;5033600;28;20989;-50
2023/03/25 09:46:51;;;;;;;4.40;2.30;;;14.20;99.90;;;;;;5018808;28;20523;-51
2023/03/25 09:49:23;;;;;;;2.77;1.00;;;13.90;99.90;;;;;;5027248;28;20499;-51
2023/03/25 09:51:52;;;;;;;7.47;1.23;;;13.50;99.90;;;;;;5028047;28;20445;-50
2023/03/25 09:54:26;;;;;;;1.07;1.00;;;13.30;99.90;;;;;;5032037;28;20507;-50
2023/03/25 09:56:54;;;;;;;1.67;1.23;;;13.00;99.90;;;;;;5033265;28;20540;-51
2023/03/25 09:59:23;;;;;;;2.43;1.10;;;12.60;99.90;;;;;;5033017;28;20472;-50
2023/03/25 10:02:00;;;;;;;1.77;1.50;;;12.50;99.90;;;;;;5019386;28;21009;-50
2023/03/25 10:04:47;;;;;;;5.03;1.27;;;12.30;99.90;;;;;;5032142;28;20501;-50
2023/03/25 10:07:27;;;;;;;1.00;0.80;;;12.30;99.90;;;;;;5023864;28;20533;-50
2023/03/25 10:10:02;;;;;;;2.07;1.20;;;12.20;99.90;;;;;;5022928;28;20949;-51
2023/03/25 10:12:37;;;;;;;1.97;0.93;;;12.20;99.90;;;;;;5030833;28;20602;-52
2023/03/25 10:15:16;;;;;;;1.53;1.20;;;12.60;99.90;;;;;;5023002;28;21056;-50
2023/03/25 10:17:55;;;;;;;2.10;1.27;;;13.40;99.90;;;;;;5033491;28;20844;-58
2023/03/25 10:20:30;;;;;;;2.50;1.00;;;13.30;99.90;;;;;;5022529;28;20459;-56
2023/03/25 10:23:04;;;;;;;2.07;1.07;;;13.00;99.90;;;;;;5018342;28;20459;-58
2023/03/25 10:25:37;;;;;;;0.60;0.60;;;12.80;99.90;;;;;;5019068;28;21000;-57
2023/03/25 10:28:05;;;;;;;2.97;1.30;;;12.90;99.90;;;;;;5012702;28;20497;-57
2023/03/25 10:30:40;;;;;;;2.10;1.23;;;12.80;99.90;;;;;;5022649;28;20476;-56
2023/03/25 10:33:15;;;;;;;3.03;1.00;;;13.00;99.90;;;;;;5033897;28;20849;-57
2023/03/25 10:35:46;;;;;;;0.93;0.83;;;13.20;99.90;;;;;;5073846;22;20493;-55
2023/03/25 10:38:17;;;;;;;2.00;1.10;;;13.40;99.90;;;;;;5053303;28;20481;-55
2023/03/25 10:40:48;;;;;;;1.63;1.13;;;13.40;99.90;;;;;;5059499;28;20465;-51
2023/03/25 10:43:21;;;;;;;1.63;1.37;;;13.40;99.90;;;;;;5065308;28;20523;-52
2023/03/25 10:45:49;;;;;;;1.27;0.90;;;13.20;99.90;;;;;;5052275;28;20463;-55
2023/03/25 10:48:21;;;;;;;2.53;1.30;;;13.30;99.90;;;;;;5052945;28;20514;-55
2023/03/25 10:50:49;;;;;;;1.73;0.93;;;13.70;99.90;;;;;;5049709;28;20491;-54
2023/03/25 10:53:23;;;;;;;1.73;1.20;;;13.30;99.90;;;;;;5031359;28;20494;-57
2023/03/25 10:55:54;;;;;;;1.30;1.20;;;13.30;99.90;;;;;;5042884;28;20473;-51
2023/03/25 10:58:21;;;;;;;3.47;1.00;;;13.50;99.90;;;;;;5052097;28;20461;-51
2023/03/25 11:00:48;;;;;;;5.77;1.00;;;13.40;99.90;;;;;;5046004;28;20489;-50
2023/03/25 11:03:19;;;;;;;3.30;1.33;;;13.10;99.90;;;;;;5043669;28;20493;-50
2023/03/25 11:05:48;;;;;;;1.13;1.03;;;12.90;99.90;;;;;;5052075;28;20461;-50
2023/03/25 11:08:16;;;;;;;2.20;1.13;;;12.80;99.90;;;;;;5047541;28;21076;-51
2023/03/25 11:10:50;;;;;;;2.43;1.00;;;13.10;99.90;;;;;;5048580;28;20964;-51
2023/03/25 11:13:20;;;;;;;1.97;0.97;;;13.40;99.90;;;;;;5051208;28;20945;-50
2023/03/25 11:15:48;;;;;;;2.40;1.27;;;13.30;99.90;;;;;;5036813;28;20536;-51
2023/03/25 11:18:20;;;;;;;3.90;2.30;;;13.00;99.90;;;;;;5036588;28;20461;-50
2023/03/25 11:20:50;;;;;;;5.60;2.10;;;12.80;99.90;;;;;;5038657;28;20470;-50
2023/03/25 11:23:24;;;;;;;6.10;1.80;;;12.80;99.90;;;;;;5044604;28;20462;-50
2023/03/25 11:25:52;;;;;;;4.37;2.27;;;13.00;99.90;;;;;;5043666;28;20478;-50
2023/03/25 11:28:27;;;;;;;2.07;1.87;;;13.20;99.90;;;;;;5048867;28;20486;-50
2023/03/25 11:31:15;;;;;;;2.00;1.67;;;13.10;99.90;;;;;;5046520;28;20462;-51
2023/03/25 11:33:43;;;;;;;1.10;1.10;;;13.40;99.90;;;;;;5049374;28;20508;-51
2023/03/25 11:36:22;;;;;;;4.10;1.80;;;13.80;99.90;;;;;;5050183;28;20464;-52
2023/03/25 11:38:58;;;;;;;1.20;1.10;;;14.20;99.90;;;;;;5052005;28;20502;-51
2023/03/25 11:41:29;;;;;;;1.37;1.10;;;14.50;99.90;;;;;;5048391;28;20487;-51
2023/03/25 11:43:57;;;;;;;1.00;0.90;;;14.60;99.90;;;;;;5045760;28;20482;-52
2023/03/25 11:46:24;;;;;;;1.00;1.00;;;14.30;99.90;;;;;;5041234;28;20632;-52
2023/03/25 11:48:51;;;;;;;1.60;1.00;;;14.10;99.90;;;;;;5042780;28;20466;-52
2023/03/25 11:51:21;;;;;;;1.63;0.80;;;14.30;99.90;;;;;;5045003;28;20532;-53
2023/03/25 11:53:54;;;;;;;1.63;1.20;;;14.30;99.90;;;;;;5037630;28;20936;-52
2023/03/25 11:56:25;;;;;;;2.30;1.03;;;13.80;99.90;;;;;;5044706;28;20489;-52
2023/03/25 11:58:57;;;;;;;1.67;1.13;;;13.50;99.90;;;;;;5048020;28;20493;-52
2023/03/25 12:01:28;;;;;;;1.53;0.83;;;13.70;99.90;;;;;;5049647;28;21076;-53
2023/03/25 12:04:13;;;;;;;1.23;1.10;;;13.50;99.90;;;;;;5045414;28;20466;-53
2023/03/25 12:06:53;;;;;;;2.07;1.23;;;13.50;99.90;;;;;;5033878;28;21277;-51
2023/03/25 12:09:20;;;;;;;1.37;1.00;;;13.40;99.90;;;;;;5045619;28;20452;-51
2023/03/25 12:11:55;;;;;;;2.03;0.97;;;13.00;99.90;;;;;;5057175;28;20970;-50
2023/03/25 12:14:33;;;;;;;4.30;1.50;;;12.70;99.90;;;;;;5049690;28;20849;-52
2023/03/25 12:17:10;;;;;;;2.30;1.20;;;12.40;95.10;;;;;;5049398;28;20560;-51
2023/03/25 12:19:52;;;;;;;1.40;1.00;;;12.20;88.80;;;;;;5060770;28;20483;-52
2023/03/25 12:22:31;;;;;;;1.53;1.20;;;12.40;72.00;;;;;;5047501;28;20460;-52
2023/03/25 12:25:25;;;;;;;1.37;1.00;;;12.60;92.40;;;;;;5038649;28;20530;-52
2023/03/25 12:28:02;;;;;;;5.13;1.57;;;12.70;89.70;;;;;;5049841;28;20501;-53
2023/03/25 12:30:41;;;;;;;2.40;1.00;;;12.70;99.90;;;;;;5064856;28;20951;-53
2023/03/25 12:33:21;;;;;;;2.17;1.10;;;12.60;99.90;;;;;;5065339;28;20876;-52
2023/03/25 12:36:02;;;;;;;3.53;1.50;;;12.90;99.90;;;;;;5043506;28;20491;-52
2023/03/25 12:38:39;;;;;;;3.23;0.90;;;12.80;99.90;;;;;;5044489;28;20984;-52
2023/03/25 12:41:17;;;;;;;3.50;1.00;;;13.00;99.90;;;;;;5051029;28;20440;-53
2023/03/25 12:43:59;;;;;;;1.63;1.40;;;13.00;99.90;;;;;;5046678;28;20484;-52
2023/03/25 12:46:43;;;;;;;1.33;1.17;;;12.50;99.90;;;;;;5045103;28;20519;-53
2023/03/25 12:49:29;;;;;;;3.93;1.27;;;12.40;99.90;;;;;;5046837;28;20481;-53
2023/03/25 12:52:04;;;;;;;3.17;1.60;;;11.50;99.90;;;;;;5051554;28;20461;-52
2023/03/25 12:54:50;;;;;;;4.47;1.50;;;11.00;99.90;;;;;;5046055;28;20539;-53
2023/03/25 12:57:32;;;;;;;1.17;1.07;;;10.60;99.90;;;;;;5048828;28;20549;-52
2023/03/25 13:00:09;;;;;;;16.20;1.33;;;10.20;74.70;;;;;;5069187;28;20450;-51
2023/03/25 13:03:03;;;;;;;2.83;1.37;;;10.80;99.90;;;;;;5052727;28;20540;-51
2023/03/25 13:05:37;;;;;;;1.13;1.00;;;11.30;73.70;;;;;;5046541;28;20512;-54
2023/03/25 13:08:10;;;;;;;1.50;0.80;;;12.00;45.20;;;;;;5051309;28;20510;-52
2023/03/25 13:10:38;;;;;;;1.30;1.07;;;11.80;99.90;;;;;;5069805;28;20963;-53